sensor_id;sensor_type;location;lat;lon;timestamp;P1;P2;P0
80396;PMS5003;69721;55.894;-3.052;2023-07-20T00:00:25;9;9;
80396;PMS5003;69721;55.894;-3.052;2023-07-20T00:02:50;13;11;
80396;PMS5003;69721;55.894;-3.052;2023-07-20T00:05:15;11;11;
80396;PMS5003;69721;55.894;-3.052;2023-07-20T00:07:40;11;11;
80396;PMS5003;69721;55.894;-3.052;2023-07-20T00:10:06;11;11;
80396;PMS5003;69721;55.894;-3.052;2023-07-20T00:12:31;11;9;
80396;PMS5003;69721;55.894;-3.052;2023-07-20T00:14:56;13;11;
80396;PMS5003;69721;55.894;-3.052;2023-07-20T00:17:21;13;10;
80396;PMS5003;69721;55.894;-3.052;2023-07-20T00:19:46;12;11;
80396;PMS5003;69721;55.894;-3.052;2023-07-20T00:22:12;12;12;
80396;PMS5003;69721;55.894;-3.052;2023-07-20T00:24:37;11;11;
80396;PMS5003;69721;55.894;-3.052;2023-07-20T00:27:02;12;9;
80396;PMS5003;69721;55.894;-3.052;2023-07-20T00:29:28;12;10;
80396;PMS5003;69721;55.894;-3.052;2023-07-20T00:31:53;17;16;
80396;PMS5003;69721;55.894;-3.052;2023-07-20T00:34:19;16;12;
80396;PMS5003;69721;55.894;-3.052;2023-07-20T00:36:44;12;10;
80396;PMS5003;69721;55.894;-3.052;2023-07-20T00:39:09;18;17;
80396;PMS5003;69721;55.894;-3.052;2023-07-20T00:41:35;14;12;
80396;PMS5003;69721;55.894;-3.052;2023-07-20T00:44:00;13;12;
80396;PMS5003;69721;55.894;-3.052;2023-07-20T00:46:25;11;11;
80396;PMS5003;69721;55.894;-3.052;2023-07-20T00:48:50;17;14;
80396;PMS5003;69721;55.894;-3.052;2023-07-20T00:51:16;17;14;
80396;PMS5003;69721;55.894;-3.052;2023-07-20T00:53:42;13;12;
80396;PMS5003;69721;55.894;-3.052;2023-07-20T00:56:07;16;15;
80396;PMS5003;69721;55.894;-3.052;2023-07-20T00:58:32;13;12;
80396;PMS5003;69721;55.894;-3.052;2023-07-20T01:00:57;14;14;
80396;PMS5003;69721;55.894;-3.052;2023-07-20T01:03:23;20;17;
80396;PMS5003;69721;55.894;-3.052;2023-07-20T01:05:50;16;16;
80396;PMS5003;69721;55.894;-3.052;2023-07-20T01:08:15;15;12;
80396;PMS5003;69721;55.894;-3.052;2023-07-20T01:10:40;16;13;
80396;PMS5003;69721;55.894;-3.052;2023-07-20T01:13:04;13;12;
80396;PMS5003;69721;55.894;-3.052;2023-07-20T01:15:29;18;16;
80396;PMS5003;69721;55.894;-3.052;2023-07-20T01:17:55;14;12;
80396;PMS5003;69721;55.894;-3.052;2023-07-20T01:20:20;18;15;
80396;PMS5003;69721;55.894;-3.052;2023-07-20T01:22:50;11;10;
80396;PMS5003;69721;55.894;-3.052;2023-07-20T01:25:17;12;11;
80396;PMS5003;69721;55.894;-3.052;2023-07-20T01:30:05;17;13;
80396;PMS5003;69721;55.894;-3.052;2023-07-20T01:32:27;15;15;
80396;PMS5003;69721;55.894;-3.052;2023-07-20T01:34:52;15;12;
80396;PMS5003;69721;55.894;-3.052;2023-07-20T01:37:17;14;14;
80396;PMS5003;69721;55.894;-3.052;2023-07-20T01:39:43;13;13;
80396;PMS5003;69721;55.894;-3.052;2023-07-20T01:42:08;14;13;
80396;PMS5003;69721;55.894;-3.052;2023-07-20T01:44:34;14;12;
80396;PMS5003;69721;55.894;-3.052;2023-07-20T01:46:59;11;11;
80396;PMS5003;69721;55.894;-3.052;2023-07-20T01:49:25;12;12;
80396;PMS5003;69721;55.894;-3.052;2023-07-20T01:51:50;13;11;
80396;PMS5003;69721;55.894;-3.052;2023-07-20T01:54:15;13;12;
80396;PMS5003;69721;55.894;-3.052;2023-07-20T01:56:40;16;13;
80396;PMS5003;69721;55.894;-3.052;2023-07-20T01:59:06;15;15;
80396;PMS5003;69721;55.894;-3.052;2023-07-20T02:01:31;16;11;
80396;PMS5003;69721;55.894;-3.052;2023-07-20T02:03:56;12;12;
80396;PMS5003;69721;55.894;-3.052;2023-07-20T02:06:22;12;11;
80396;PMS5003;69721;55.894;-3.052;2023-07-20T02:08:47;13;11;
80396;PMS5003;69721;55.894;-3.052;2023-07-20T02:11:13;13;13;
80396;PMS5003;69721;55.894;-3.052;2023-07-20T02:13:38;12;12;
80396;PMS5003;69721;55.894;-3.052;2023-07-20T02:16:04;17;14;
80396;PMS5003;69721;55.894;-3.052;2023-07-20T02:18:29;12;12;
80396;PMS5003;69721;55.894;-3.052;2023-07-20T02:20:54;14;12;
80396;PMS5003;69721;55.894;-3.052;2023-07-20T02:23:20;13;12;
80396;PMS5003;69721;55.894;-3.052;2023-07-20T02:25:45;12;12;
80396;PMS5003;69721;55.894;-3.052;2023-07-20T02:28:13;13;11;
80396;PMS5003;69721;55.894;-3.052;2023-07-20T02:30:37;11;9;
80396;PMS5003;69721;55.894;-3.052;2023-07-20T02:33:01;13;13;
80396;PMS5003;69721;55.894;-3.052;2023-07-20T02:35:27;16;15;
80396;PMS5003;69721;55.894;-3.052;2023-07-20T02:37:53;13;13;
80396;PMS5003;69721;55.894;-3.052;2023-07-20T02:40:18;14;13;
80396;PMS5003;69721;55.894;-3.052;2023-07-20T02:42:44;17;15;
80396;PMS5003;69721;55.894;-3.052;2023-07-20T02:45:09;16;13;
80396;PMS5003;69721;55.894;-3.052;2023-07-20T02:47:34;11;9;
80396;PMS5003;69721;55.894;-3.052;2023-07-20T02:50:00;16;14;
80396;PMS5003;69721;55.894;-3.052;2023-07-20T02:52:26;14;10;
80396;PMS5003;69721;55.894;-3.052;2023-07-20T02:54:51;14;14;
80396;PMS5003;69721;55.894;-3.052;2023-07-20T02:57:17;11;11;
80396;PMS5003;69721;55.894;-3.052;2023-07-20T02:59:42;10;10;
80396;PMS5003;69721;55.894;-3.052;2023-07-20T03:02:08;15;15;
80396;PMS5003;69721;55.894;-3.052;2023-07-20T03:04:34;9;9;
80396;PMS5003;69721;55.894;-3.052;2023-07-20T03:06:59;12;12;
80396;PMS5003;69721;55.894;-3.052;2023-07-20T03:09:24;13;12;
80396;PMS5003;69721;55.894;-3.052;2023-07-20T03:11:50;15;12;
80396;PMS5003;69721;55.894;-3.052;2023-07-20T03:14:15;17;13;
80396;PMS5003;69721;55.894;-3.052;2023-07-20T03:16:40;10;10;
80396;PMS5003;69721;55.894;-3.052;2023-07-20T03:19:05;17;15;
80396;PMS5003;69721;55.894;-3.052;2023-07-20T03:21:31;10;10;
80396;PMS5003;69721;55.894;-3.052;2023-07-20T03:23:57;10;10;
80396;PMS5003;69721;55.894;-3.052;2023-07-20T03:26:22;11;10;
80396;PMS5003;69721;55.894;-3.052;2023-07-20T03:28:48;14;11;
80396;PMS5003;69721;55.894;-3.052;2023-07-20T03:31:13;13;13;
80396;PMS5003;69721;55.894;-3.052;2023-07-20T03:33:39;11;11;
80396;PMS5003;69721;55.894;-3.052;2023-07-20T03:36:04;11;11;
80396;PMS5003;69721;55.894;-3.052;2023-07-20T03:38:29;14;12;
80396;PMS5003;69721;55.894;-3.052;2023-07-20T03:40:55;11;11;
80396;PMS5003;69721;55.894;-3.052;2023-07-20T03:43:20;17;15;
80396;PMS5003;69721;55.894;-3.052;2023-07-20T03:45:45;14;12;
80396;PMS5003;69721;55.894;-3.052;2023-07-20T03:48:11;15;12;
80396;PMS5003;69721;55.894;-3.052;2023-07-20T03:50:36;11;11;
80396;PMS5003;69721;55.894;-3.052;2023-07-20T03:53:01;11;11;
80396;PMS5003;69721;55.894;-3.052;2023-07-20T03:55:26;12;12;
80396;PMS5003;69721;55.894;-3.052;2023-07-20T03:57:52;16;16;
80396;PMS5003;69721;55.894;-3.052;2023-07-20T04:00:17;17;14;
80396;PMS5003;69721;55.894;-3.052;2023-07-20T04:02:42;15;15;
80396;PMS5003;69721;55.894;-3.052;2023-07-20T04:05:08;15;13;
80396;PMS5003;69721;55.894;-3.052;2023-07-20T04:07:33;17;14;
80396;PMS5003;69721;55.894;-3.052;2023-07-20T04:09:58;10;10;
80396;PMS5003;69721;55.894;-3.052;2023-07-20T04:12:24;14;12;
80396;PMS5003;69721;55.894;-3.052;2023-07-20T04:14:50;16;16;
80396;PMS5003;69721;55.894;-3.052;2023-07-20T04:17:16;10;10;
80396;PMS5003;69721;55.894;-3.052;2023-07-20T04:19:41;13;11;
80396;PMS5003;69721;55.894;-3.052;2023-07-20T04:22:06;12;11;
80396;PMS5003;69721;55.894;-3.052;2023-07-20T04:24:32;13;11;
80396;PMS5003;69721;55.894;-3.052;2023-07-20T04:26:57;13;13;
80396;PMS5003;69721;55.894;-3.052;2023-07-20T04:29:23;10;10;
80396;PMS5003;69721;55.894;-3.052;2023-07-20T04:31:48;14;12;
80396;PMS5003;69721;55.894;-3.052;2023-07-20T04:34:14;15;14;
80396;PMS5003;69721;55.894;-3.052;2023-07-20T04:36:39;17;15;
80396;PMS5003;69721;55.894;-3.052;2023-07-20T04:39:05;17;13;
80396;PMS5003;69721;55.894;-3.052;2023-07-20T04:41:31;13;11;
80396;PMS5003;69721;55.894;-3.052;2023-07-20T04:43:56;15;12;
80396;PMS5003;69721;55.894;-3.052;2023-07-20T04:46:22;21;18;
80396;PMS5003;69721;55.894;-3.052;2023-07-20T04:48:48;12;11;
80396;PMS5003;69721;55.894;-3.052;2023-07-20T04:51:13;13;13;
80396;PMS5003;69721;55.894;-3.052;2023-07-20T04:53:38;12;11;
80396;PMS5003;69721;55.894;-3.052;2023-07-20T04:56:04;12;10;
80396;PMS5003;69721;55.894;-3.052;2023-07-20T04:58:29;11;11;
80396;PMS5003;69721;55.894;-3.052;2023-07-20T05:00:55;11;11;
80396;PMS5003;69721;55.894;-3.052;2023-07-20T05:03:20;13;13;
80396;PMS5003;69721;55.894;-3.052;2023-07-20T05:05:46;14;12;
80396;PMS5003;69721;55.894;-3.052;2023-07-20T05:08:10;10;10;
80396;PMS5003;69721;55.894;-3.052;2023-07-20T05:10:36;19;13;
80396;PMS5003;69721;55.894;-3.052;2023-07-20T05:13:01;10;10;
80396;PMS5003;69721;55.894;-3.052;2023-07-20T05:15:26;19;16;
80396;PMS5003;69721;55.894;-3.052;2023-07-20T05:17:52;15;13;
80396;PMS5003;69721;55.894;-3.052;2023-07-20T05:20:17;11;10;
80396;PMS5003;69721;55.894;-3.052;2023-07-20T05:22:42;15;14;
80396;PMS5003;69721;55.894;-3.052;2023-07-20T05:25:08;11;11;
80396;PMS5003;69721;55.894;-3.052;2023-07-20T05:27:33;16;14;
80396;PMS5003;69721;55.894;-3.052;2023-07-20T05:29:58;13;12;
80396;PMS5003;69721;55.894;-3.052;2023-07-20T05:32:24;15;13;
80396;PMS5003;69721;55.894;-3.052;2023-07-20T05:34:51;12;11;
80396;PMS5003;69721;55.894;-3.052;2023-07-20T05:37:14;12;11;
80396;PMS5003;69721;55.894;-3.052;2023-07-20T05:39:40;11;11;
80396;PMS5003;69721;55.894;-3.052;2023-07-20T05:42:05;11;11;
80396;PMS5003;69721;55.894;-3.052;2023-07-20T05:44:31;10;10;
80396;PMS5003;69721;55.894;-3.052;2023-07-20T05:46:56;11;11;
80396;PMS5003;69721;55.894;-3.052;2023-07-20T05:49:22;14;13;
80396;PMS5003;69721;55.894;-3.052;2023-07-20T05:51:47;13;10;
80396;PMS5003;69721;55.894;-3.052;2023-07-20T05:54:12;14;12;
80396;PMS5003;69721;55.894;-3.052;2023-07-20T05:56:37;19;17;
80396;PMS5003;69721;55.894;-3.052;2023-07-20T05:59:03;14;13;
80396;PMS5003;69721;55.894;-3.052;2023-07-20T06:01:28;14;11;
80396;PMS5003;69721;55.894;-3.052;2023-07-20T06:03:53;12;11;
80396;PMS5003;69721;55.894;-3.052;2023-07-20T06:06:19;16;16;
80396;PMS5003;69721;55.894;-3.052;2023-07-20T06:08:44;12;12;
80396;PMS5003;69721;55.894;-3.052;2023-07-20T06:11:10;13;13;
80396;PMS5003;69721;55.894;-3.052;2023-07-20T06:13:35;11;10;
80396;PMS5003;69721;55.894;-3.052;2023-07-20T06:16:01;11;11;
80396;PMS5003;69721;55.894;-3.052;2023-07-20T06:18:26;10;10;
80396;PMS5003;69721;55.894;-3.052;2023-07-20T06:20:52;11;10;
80396;PMS5003;69721;55.894;-3.052;2023-07-20T06:23:17;13;13;
80396;PMS5003;69721;55.894;-3.052;2023-07-20T06:25:42;15;15;
80396;PMS5003;69721;55.894;-3.052;2023-07-20T06:28:07;11;11;
80396;PMS5003;69721;55.894;-3.052;2023-07-20T06:30:33;13;13;
80396;PMS5003;69721;55.894;-3.052;2023-07-20T06:32:57;10;10;
80396;PMS5003;69721;55.894;-3.052;2023-07-20T06:35:23;10;9;
80396;PMS5003;69721;55.894;-3.052;2023-07-20T06:37:48;10;10;
80396;PMS5003;69721;55.894;-3.052;2023-07-20T06:40:14;11;11;
80396;PMS5003;69721;55.894;-3.052;2023-07-20T06:42:39;9;8;
80396;PMS5003;69721;55.894;-3.052;2023-07-20T06:45:05;9;9;
80396;PMS5003;69721;55.894;-3.052;2023-07-20T06:47:30;11;10;
80396;PMS5003;69721;55.894;-3.052;2023-07-20T06:49:55;12;10;
80396;PMS5003;69721;55.894;-3.052;2023-07-20T06:52:21;13;11;
80396;PMS5003;69721;55.894;-3.052;2023-07-20T06:54:46;10;10;
80396;PMS5003;69721;55.894;-3.052;2023-07-20T06:57:12;11;11;
80396;PMS5003;69721;55.894;-3.052;2023-07-20T06:59:37;10;10;
80396;PMS5003;69721;55.894;-3.052;2023-07-20T07:02:02;13;13;
80396;PMS5003;69721;55.894;-3.052;2023-07-20T07:04:28;11;11;
80396;PMS5003;69721;55.894;-3.052;2023-07-20T07:06:53;13;10;
80396;PMS5003;69721;55.894;-3.052;2023-07-20T07:09:18;9;8;
80396;PMS5003;69721;55.894;-3.052;2023-07-20T07:11:43;13;13;
80396;PMS5003;69721;55.894;-3.052;2023-07-20T07:14:09;13;13;
80396;PMS5003;69721;55.894;-3.052;2023-07-20T07:16:34;16;16;
80396;PMS5003;69721;55.894;-3.052;2023-07-20T07:19:00;18;16;
80396;PMS5003;69721;55.894;-3.052;2023-07-20T07:21:25;14;14;
80396;PMS5003;69721;55.894;-3.052;2023-07-20T07:23:50;17;15;
80396;PMS5003;69721;55.894;-3.052;2023-07-20T07:26:16;14;13;
80396;PMS5003;69721;55.894;-3.052;2023-07-20T07:28:41;19;16;
80396;PMS5003;69721;55.894;-3.052;2023-07-20T07:31:07;14;14;
80396;PMS5003;69721;55.894;-3.052;2023-07-20T07:33:31;19;18;
80396;PMS5003;69721;55.894;-3.052;2023-07-20T07:35:57;16;14;
80396;PMS5003;69721;55.894;-3.052;2023-07-20T07:38:22;15;15;
80396;PMS5003;69721;55.894;-3.052;2023-07-20T07:40:47;17;16;
80396;PMS5003;69721;55.894;-3.052;2023-07-20T07:43:13;16;14;
80396;PMS5003;69721;55.894;-3.052;2023-07-20T07:45:38;20;18;
80396;PMS5003;69721;55.894;-3.052;2023-07-20T07:48:04;15;14;
80396;PMS5003;69721;55.894;-3.052;2023-07-20T07:50:29;14;13;
80396;PMS5003;69721;55.894;-3.052;2023-07-20T07:52:54;15;15;
80396;PMS5003;69721;55.894;-3.052;2023-07-20T07:55:20;17;16;
80396;PMS5003;69721;55.894;-3.052;2023-07-20T07:57:45;20;19;
80396;PMS5003;69721;55.894;-3.052;2023-07-20T08:00:11;23;22;
80396;PMS5003;69721;55.894;-3.052;2023-07-20T08:02:35;17;17;
80396;PMS5003;69721;55.894;-3.052;2023-07-20T08:05:01;18;18;
80396;PMS5003;69721;55.894;-3.052;2023-07-20T08:07:26;17;16;
80396;PMS5003;69721;55.894;-3.052;2023-07-20T08:09:51;19;19;
80396;PMS5003;69721;55.894;-3.052;2023-07-20T08:12:16;21;18;
80396;PMS5003;69721;55.894;-3.052;2023-07-20T08:14:42;25;22;
80396;PMS5003;69721;55.894;-3.052;2023-07-20T08:17:13;20;20;
80396;PMS5003;69721;55.894;-3.052;2023-07-20T08:19:38;26;21;
80396;PMS5003;69721;55.894;-3.052;2023-07-20T08:22:05;21;19;
80396;PMS5003;69721;55.894;-3.052;2023-07-20T08:24:31;20;20;
80396;PMS5003;69721;55.894;-3.052;2023-07-20T08:26:56;21;20;
80396;PMS5003;69721;55.894;-3.052;2023-07-20T08:29:22;20;18;
80396;PMS5003;69721;55.894;-3.052;2023-07-20T08:31:47;20;17;
80396;PMS5003;69721;55.894;-3.052;2023-07-20T08:34:13;22;22;
80396;PMS5003;69721;55.894;-3.052;2023-07-20T08:36:38;23;21;
80396;PMS5003;69721;55.894;-3.052;2023-07-20T08:39:03;17;16;
80396;PMS5003;69721;55.894;-3.052;2023-07-20T08:41:29;20;20;
80396;PMS5003;69721;55.894;-3.052;2023-07-20T08:43:54;16;16;
80396;PMS5003;69721;55.894;-3.052;2023-07-20T08:46:20;24;20;
80396;PMS5003;69721;55.894;-3.052;2023-07-20T08:48:45;21;19;
80396;PMS5003;69721;55.894;-3.052;2023-07-20T08:51:11;18;17;
80396;PMS5003;69721;55.894;-3.052;2023-07-20T08:53:36;24;24;
80396;PMS5003;69721;55.894;-3.052;2023-07-20T08:56:02;21;20;
80396;PMS5003;69721;55.894;-3.052;2023-07-20T08:58:27;22;20;
80396;PMS5003;69721;55.894;-3.052;2023-07-20T09:00:52;19;17;
80396;PMS5003;69721;55.894;-3.052;2023-07-20T09:03:18;21;17;
80396;PMS5003;69721;55.894;-3.052;2023-07-20T09:05:43;21;21;
80396;PMS5003;69721;55.894;-3.052;2023-07-20T09:08:08;18;16;
80396;PMS5003;69721;55.894;-3.052;2023-07-20T09:10:33;24;22;
80396;PMS5003;69721;55.894;-3.052;2023-07-20T09:12:58;24;24;
80396;PMS5003;69721;55.894;-3.052;2023-07-20T09:15:24;22;20;
80396;PMS5003;69721;55.894;-3.052;2023-07-20T09:17:50;20;20;
80396;PMS5003;69721;55.894;-3.052;2023-07-20T09:20:16;19;18;
80396;PMS5003;69721;55.894;-3.052;2023-07-20T09:22:41;18;16;
80396;PMS5003;69721;55.894;-3.052;2023-07-20T09:25:06;12;12;
80396;PMS5003;69721;55.894;-3.052;2023-07-20T09:27:35;17;16;
80396;PMS5003;69721;55.894;-3.052;2023-07-20T09:29:56;18;15;
80396;PMS5003;69721;55.894;-3.052;2023-07-20T09:32:21;20;17;
80396;PMS5003;69721;55.894;-3.052;2023-07-20T09:34:48;24;22;
80396;PMS5003;69721;55.894;-3.052;2023-07-20T09:37:12;17;17;
80396;PMS5003;69721;55.894;-3.052;2023-07-20T09:39:42;17;16;
80396;PMS5003;69721;55.894;-3.052;2023-07-20T09:42:03;18;16;
80396;PMS5003;69721;55.894;-3.052;2023-07-20T09:44:28;14;12;
80396;PMS5003;69721;55.894;-3.052;2023-07-20T09:46:54;9;9;
80396;PMS5003;69721;55.894;-3.052;2023-07-20T09:49:19;12;10;
80396;PMS5003;69721;55.894;-3.052;2023-07-20T09:51:45;15;15;
80396;PMS5003;69721;55.894;-3.052;2023-07-20T09:54:10;9;9;
80396;PMS5003;69721;55.894;-3.052;2023-07-20T09:56:35;12;12;
80396;PMS5003;69721;55.894;-3.052;2023-07-20T09:59:00;13;13;
80396;PMS5003;69721;55.894;-3.052;2023-07-20T10:01:25;14;12;
80396;PMS5003;69721;55.894;-3.052;2023-07-20T10:03:51;13;13;
80396;PMS5003;69721;55.894;-3.052;2023-07-20T10:06:16;16;16;
80396;PMS5003;69721;55.894;-3.052;2023-07-20T10:08:41;14;14;
80396;PMS5003;69721;55.894;-3.052;2023-07-20T10:11:07;18;15;
80396;PMS5003;69721;55.894;-3.052;2023-07-20T10:13:31;13;13;
80396;PMS5003;69721;55.894;-3.052;2023-07-20T10:15:58;21;18;
80396;PMS5003;69721;55.894;-3.052;2023-07-20T10:18:23;19;16;
80396;PMS5003;69721;55.894;-3.052;2023-07-20T10:20:47;18;17;
80396;PMS5003;69721;55.894;-3.052;2023-07-20T10:23:12;16;15;
80396;PMS5003;69721;55.894;-3.052;2023-07-20T10:25:37;15;14;
80396;PMS5003;69721;55.894;-3.052;2023-07-20T10:28:03;17;16;
80396;PMS5003;69721;55.894;-3.052;2023-07-20T10:30:28;17;16;
80396;PMS5003;69721;55.894;-3.052;2023-07-20T10:32:53;18;17;
80396;PMS5003;69721;55.894;-3.052;2023-07-20T10:35:19;19;15;
80396;PMS5003;69721;55.894;-3.052;2023-07-20T10:37:46;17;15;
80396;PMS5003;69721;55.894;-3.052;2023-07-20T10:42:35;16;15;
80396;PMS5003;69721;55.894;-3.052;2023-07-20T10:45:01;22;19;
80396;PMS5003;69721;55.894;-3.052;2023-07-20T10:47:26;19;19;
80396;PMS5003;69721;55.894;-3.052;2023-07-20T10:49:57;20;20;
80396;PMS5003;69721;55.894;-3.052;2023-07-20T10:52:17;24;20;
80396;PMS5003;69721;55.894;-3.052;2023-07-20T10:54:47;17;17;
80396;PMS5003;69721;55.894;-3.052;2023-07-20T10:59:37;20;20;
80396;PMS5003;69721;55.894;-3.052;2023-07-20T11:01:59;17;17;
80396;PMS5003;69721;55.894;-3.052;2023-07-20T11:06:52;17;14;
80396;PMS5003;69721;55.894;-3.052;2023-07-20T11:09:14;19;18;
80396;PMS5003;69721;55.894;-3.052;2023-07-20T11:11:40;17;17;
80396;PMS5003;69721;55.894;-3.052;2023-07-20T11:14:06;20;18;
80396;PMS5003;69721;55.894;-3.052;2023-07-20T11:16:35;20;17;
80396;PMS5003;69721;55.894;-3.052;2023-07-20T11:18:56;19;17;
80396;PMS5003;69721;55.894;-3.052;2023-07-20T11:21:21;15;13;
80396;PMS5003;69721;55.894;-3.052;2023-07-20T11:23:46;16;13;
80396;PMS5003;69721;55.894;-3.052;2023-07-20T11:26:12;16;13;
80396;PMS5003;69721;55.894;-3.052;2023-07-20T11:28:38;16;13;
80396;PMS5003;69721;55.894;-3.052;2023-07-20T11:31:03;15;15;
80396;PMS5003;69721;55.894;-3.052;2023-07-20T11:33:28;20;18;
80396;PMS5003;69721;55.894;-3.052;2023-07-20T11:35:53;20;18;
80396;PMS5003;69721;55.894;-3.052;2023-07-20T11:38:19;22;20;
80396;PMS5003;69721;55.894;-3.052;2023-07-20T11:40:44;24;20;
80396;PMS5003;69721;55.894;-3.052;2023-07-20T11:43:09;18;17;
80396;PMS5003;69721;55.894;-3.052;2023-07-20T11:45:34;18;18;
80396;PMS5003;69721;55.894;-3.052;2023-07-20T11:47:59;22;22;
80396;PMS5003;69721;55.894;-3.052;2023-07-20T11:50:25;22;22;
80396;PMS5003;69721;55.894;-3.052;2023-07-20T11:52:51;21;20;
80396;PMS5003;69721;55.894;-3.052;2023-07-20T11:55:16;21;20;
80396;PMS5003;69721;55.894;-3.052;2023-07-20T11:57:41;22;22;
80396;PMS5003;69721;55.894;-3.052;2023-07-20T12:00:07;19;19;
80396;PMS5003;69721;55.894;-3.052;2023-07-20T12:02:32;31;25;
80396;PMS5003;69721;55.894;-3.052;2023-07-20T12:04:57;24;24;
80396;PMS5003;69721;55.894;-3.052;2023-07-20T12:07:22;22;19;
80396;PMS5003;69721;55.894;-3.052;2023-07-20T12:12:13;25;25;
80396;PMS5003;69721;55.894;-3.052;2023-07-20T12:14:38;25;23;
80396;PMS5003;69721;55.894;-3.052;2023-07-20T12:17:04;22;20;
80396;PMS5003;69721;55.894;-3.052;2023-07-20T12:19:29;23;21;
80396;PMS5003;69721;55.894;-3.052;2023-07-20T12:21:57;21;21;
80396;PMS5003;69721;55.894;-3.052;2023-07-20T12:24:21;26;24;
80396;PMS5003;69721;55.894;-3.052;2023-07-20T12:26:46;28;26;
80396;PMS5003;69721;55.894;-3.052;2023-07-20T12:29:12;21;21;
80396;PMS5003;69721;55.894;-3.052;2023-07-20T12:31:37;31;30;
80396;PMS5003;69721;55.894;-3.052;2023-07-20T12:34:03;29;23;
80396;PMS5003;69721;55.894;-3.052;2023-07-20T12:36:28;19;18;
80396;PMS5003;69721;55.894;-3.052;2023-07-20T12:38:54;14;14;
80396;PMS5003;69721;55.894;-3.052;2023-07-20T12:41:19;23;20;
80396;PMS5003;69721;55.894;-3.052;2023-07-20T12:43:45;30;27;
80396;PMS5003;69721;55.894;-3.052;2023-07-20T12:46:11;21;20;
80396;PMS5003;69721;55.894;-3.052;2023-07-20T12:48:36;24;24;
80396;PMS5003;69721;55.894;-3.052;2023-07-20T12:51:01;19;19;
80396;PMS5003;69721;55.894;-3.052;2023-07-20T12:53:26;28;25;
80396;PMS5003;69721;55.894;-3.052;2023-07-20T12:55:52;23;20;
80396;PMS5003;69721;55.894;-3.052;2023-07-20T12:58:17;25;20;
80396;PMS5003;69721;55.894;-3.052;2023-07-20T13:00:43;25;24;
80396;PMS5003;69721;55.894;-3.052;2023-07-20T13:03:08;22;21;
80396;PMS5003;69721;55.894;-3.052;2023-07-20T13:05:34;24;24;
80396;PMS5003;69721;55.894;-3.052;2023-07-20T13:07:59;25;25;
80396;PMS5003;69721;55.894;-3.052;2023-07-20T13:10:25;21;19;
80396;PMS5003;69721;55.894;-3.052;2023-07-20T13:12:50;23;21;
80396;PMS5003;69721;55.894;-3.052;2023-07-20T13:15:16;25;21;
80396;PMS5003;69721;55.894;-3.052;2023-07-20T13:17:41;17;17;
80396;PMS5003;69721;55.894;-3.052;2023-07-20T13:20:07;22;20;
80396;PMS5003;69721;55.894;-3.052;2023-07-20T13:22:32;16;15;
80396;PMS5003;69721;55.894;-3.052;2023-07-20T13:24:57;20;20;
80396;PMS5003;69721;55.894;-3.052;2023-07-20T13:27:22;22;19;
80396;PMS5003;69721;55.894;-3.052;2023-07-20T13:29:48;18;17;
80396;PMS5003;69721;55.894;-3.052;2023-07-20T13:32:13;15;14;
80396;PMS5003;69721;55.894;-3.052;2023-07-20T13:34:38;21;20;
80396;PMS5003;69721;55.894;-3.052;2023-07-20T13:37:04;17;15;
80396;PMS5003;69721;55.894;-3.052;2023-07-20T13:39:29;19;19;
80396;PMS5003;69721;55.894;-3.052;2023-07-20T13:41:54;17;16;
80396;PMS5003;69721;55.894;-3.052;2023-07-20T13:44:20;17;17;
80396;PMS5003;69721;55.894;-3.052;2023-07-20T13:46:45;17;17;
80396;PMS5003;69721;55.894;-3.052;2023-07-20T13:49:10;20;20;
80396;PMS5003;69721;55.894;-3.052;2023-07-20T13:51:35;18;16;
80396;PMS5003;69721;55.894;-3.052;2023-07-20T13:54:00;15;15;
80396;PMS5003;69721;55.894;-3.052;2023-07-20T13:56:26;21;21;
80396;PMS5003;69721;55.894;-3.052;2023-07-20T13:58:51;19;19;
80396;PMS5003;69721;55.894;-3.052;2023-07-20T14:01:17;15;15;
80396;PMS5003;69721;55.894;-3.052;2023-07-20T14:03:42;21;17;
80396;PMS5003;69721;55.894;-3.052;2023-07-20T14:06:08;17;14;
80396;PMS5003;69721;55.894;-3.052;2023-07-20T14:08:33;15;15;
80396;PMS5003;69721;55.894;-3.052;2023-07-20T14:10:59;16;13;
80396;PMS5003;69721;55.894;-3.052;2023-07-20T14:13:25;21;19;
80396;PMS5003;69721;55.894;-3.052;2023-07-20T14:15:50;16;16;
80396;PMS5003;69721;55.894;-3.052;2023-07-20T14:18:16;16;15;
80396;PMS5003;69721;55.894;-3.052;2023-07-20T14:20:41;22;21;
80396;PMS5003;69721;55.894;-3.052;2023-07-20T14:23:06;12;12;
80396;PMS5003;69721;55.894;-3.052;2023-07-20T14:25:31;15;14;
80396;PMS5003;69721;55.894;-3.052;2023-07-20T14:27:57;15;14;
80396;PMS5003;69721;55.894;-3.052;2023-07-20T14:30:23;19;16;
80396;PMS5003;69721;55.894;-3.052;2023-07-20T14:32:48;21;16;
80396;PMS5003;69721;55.894;-3.052;2023-07-20T14:35:13;23;19;
80396;PMS5003;69721;55.894;-3.052;2023-07-20T14:37:39;14;10;
80396;PMS5003;69721;55.894;-3.052;2023-07-20T14:40:05;14;14;
80396;PMS5003;69721;55.894;-3.052;2023-07-20T14:42:29;16;11;
80396;PMS5003;69721;55.894;-3.052;2023-07-20T14:44:55;16;16;
80396;PMS5003;69721;55.894;-3.052;2023-07-20T14:47:20;19;18;
80396;PMS5003;69721;55.894;-3.052;2023-07-20T14:49:46;12;12;
80396;PMS5003;69721;55.894;-3.052;2023-07-20T14:52:11;15;12;
80396;PMS5003;69721;55.894;-3.052;2023-07-20T14:54:37;12;9;
80396;PMS5003;69721;55.894;-3.052;2023-07-20T14:57:02;13;12;
80396;PMS5003;69721;55.894;-3.052;2023-07-20T14:59:27;14;11;
80396;PMS5003;69721;55.894;-3.052;2023-07-20T15:01:53;13;12;
80396;PMS5003;69721;55.894;-3.052;2023-07-20T15:04:18;12;12;
80396;PMS5003;69721;55.894;-3.052;2023-07-20T15:06:43;13;13;
80396;PMS5003;69721;55.894;-3.052;2023-07-20T15:09:09;15;14;
80396;PMS5003;69721;55.894;-3.052;2023-07-20T15:11:34;12;10;
80396;PMS5003;69721;55.894;-3.052;2023-07-20T15:13:59;18;16;
80396;PMS5003;69721;55.894;-3.052;2023-07-20T15:16:24;15;14;
80396;PMS5003;69721;55.894;-3.052;2023-07-20T15:18:50;15;15;
80396;PMS5003;69721;55.894;-3.052;2023-07-20T15:21:15;17;17;
80396;PMS5003;69721;55.894;-3.052;2023-07-20T15:23:40;14;13;
80396;PMS5003;69721;55.894;-3.052;2023-07-20T15:26:05;18;15;
80396;PMS5003;69721;55.894;-3.052;2023-07-20T15:28:31;12;10;
80396;PMS5003;69721;55.894;-3.052;2023-07-20T15:30:59;11;9;
80396;PMS5003;69721;55.894;-3.052;2023-07-20T15:33:21;14;13;
80396;PMS5003;69721;55.894;-3.052;2023-07-20T15:35:46;10;10;
80396;PMS5003;69721;55.894;-3.052;2023-07-20T15:38:12;10;10;
80396;PMS5003;69721;55.894;-3.052;2023-07-20T15:40:37;11;11;
80396;PMS5003;69721;55.894;-3.052;2023-07-20T15:43:02;10;10;
80396;PMS5003;69721;55.894;-3.052;2023-07-20T15:45:28;11;9;
80396;PMS5003;69721;55.894;-3.052;2023-07-20T15:47:53;16;9;
80396;PMS5003;69721;55.894;-3.052;2023-07-20T15:50:19;8;6;
80396;PMS5003;69721;55.894;-3.052;2023-07-20T15:52:44;5;5;
80396;PMS5003;69721;55.894;-3.052;2023-07-20T15:55:10;10;10;
80396;PMS5003;69721;55.894;-3.052;2023-07-20T15:57:36;5;5;
80396;PMS5003;69721;55.894;-3.052;2023-07-20T16:00:01;9;9;
80396;PMS5003;69721;55.894;-3.052;2023-07-20T16:02:27;7;7;